S&P 500   4,544.90
DOW   35,677.02
QQQ   374.10
pixel
pixel
pixel
S&P 500   4,544.90
DOW   35,677.02
QQQ   374.10
pixel
pixel
pixel
S&P 500   4,544.90
DOW   35,677.02
QQQ   374.10
pixel
pixel
pixel
S&P 500   4,544.90
DOW   35,677.02
QQQ   374.10
pixel
pixel
pixel
NASDAQ:CSCO

Cisco Systems Institutional Ownership

$55.11
-0.58 (-1.04 %)
(As of 10/22/2021 12:00 AM ET)
Add
Compare
Today's Range
$54.94
$55.86
50-Day Range
$53.94
$59.53
52-Week Range
$35.28
$60.27
Volume15.03 million shs
Average Volume18.69 million shs
Market Capitalization$232.44 billion
P/E Ratio22.04
Dividend Yield2.69%
Beta0.91

Institutional Ownership Changes (13F Filings) for Cisco Systems (NASDAQ:CSCO)

Institutional Ownership Percentage: 71.92%
Skip Chart & View Institutional Buying and Selling Data

Institutional Buying and Selling by Quarter


Cisco Systems (NASDAQ CSCO) Institutional Buying and Selling

Reporting DateHedge FundShares HeldMarket Value% of PortfolioQuarterly Change in SharesOwnership in CompanyDetails
10/22/2021GSB Wealth Management LLC23,350$1.27M0.7%-58.9%0.001%
10/22/2021DDD Partners LLC415,019$22.59M3.4%+1.1%0.010%
10/22/2021Monument Capital Management4,684$0.26M0.1%N/A0.000%
10/22/2021Relyea Zuckerberg Hanson LLC5,889$0.32M0.1%+18.0%0.000%
10/22/2021Franklin Street Advisors Inc. NC430,554$23.44M2.0%+1.3%0.010%
10/22/2021Optimum Investment Advisors48,661$2.65M1.1%-17.3%0.001%
10/22/2021Ferguson Wellman Capital Management Inc.744,258$40.51M1.3%+1.2%0.018%
10/22/2021Lineweaver Wealth Advisors LLC11,360$0.62M0.2%+32.1%0.000%
10/22/2021PDS Planning Inc14,613$0.80M0.2%+4.8%0.000%
10/22/2021Cadence Bank NA94,068$5.12M1.5%-0.3%0.002%
10/22/2021Global Retirement Partners LLC47,361$2.58M0.3%+2.8%0.001%
10/22/2021Tompkins Financial Corp169,513$9.23M1.7%N/A0.004%
10/22/2021Stephenson National Bank & Trust14,759$0.80M0.5%+13.6%0.000%
10/22/2021Trust Co. of Vermont125,546$6.83M0.5%+2.2%0.003%
10/22/2021Family Firm Inc.7,938$0.45M0.1%+5.3%0.000%
10/22/2021James Investment Research Inc.2,646$0.14M0.0%-30.2%0.000%
10/22/2021Bell Bank101,675$5.53M0.7%+4.9%0.002%
10/22/2021Columbus Macro LLC41,507$2.26M0.7%-4.4%0.001%
10/22/2021Spire Wealth Management79,488$4.33M0.1%+0.3%0.002%
10/22/2021Cowa LLC15,915$0.87M0.5%-1.9%0.000%
10/22/2021Patten & Patten Inc. TN364,614$19.85M1.5%-2.2%0.009%
10/22/2021Accurate Wealth Management LLC9,107$0.50M0.4%-26.2%0.000%
10/22/2021D.B. Root & Company LLC23,571$1.28M0.5%-0.9%0.001%
10/22/2021Strs Ohio2,515,071$136.90M0.5%-14.9%0.060%
10/22/2021Allen Capital Group LLC65,466$3.56M0.7%+5.8%0.002%
10/22/2021Paulson Wealth Management Inc.11,687$0.64M0.3%+5.0%0.000%
10/22/2021Farmers & Merchants Trust Co of Chambersburg PA1,907$0.10M0.1%-35.4%0.000%
10/22/2021DekaBank Deutsche Girozentrale7,593,869$424.63M1.2%+3.8%0.180%
10/22/2021YorkBridge Wealth Partners LLC24,197$1.32M0.3%+26.9%0.001%
10/22/2021Plimoth Trust Co. LLC52,593$2.86M0.8%-2.8%0.001%
10/22/2021PGGM Investments1,204,833$65.58M0.3%-5.9%0.029%
10/22/2021Exeter Financial LLC84,650$4.61M2.8%-0.2%0.002%
10/22/2021ADE LLC6,368$0.35M0.3%-20.2%0.000%
10/22/2021Uncommon Cents Investing LLC60,780$3.31M1.3%+0.8%0.001%
10/22/2021Narwhal Capital Management118,493$6.45M0.8%+2.1%0.003%
10/22/2021Gateway Investment Advisers LLC1,707,596$92.94M1.0%+0.0%0.040%
10/22/2021Sarasin & Partners LLP501,320$27.29M0.3%-1.4%0.012%
10/22/2021Murphy Capital Management Inc.66,438$3.62M0.4%-0.5%0.002%
10/21/2021Franklin Parlapiano Turner & Welch LLC134,556$7.32M2.3%-1.0%0.003%
10/21/2021Lake Point Wealth Management1,082$59K0.0%+59.8%0.000%
10/21/2021Hanson & Doremus Investment Management65,139$3.55M0.8%-5.6%0.002%
10/21/2021TFG Advisers LLC18,910$1.03M0.5%+1.2%0.000%
10/21/2021Total Clarity Wealth Management Inc.6,655$0.36M0.2%-74.2%0.000%
10/21/2021Cascade Investment Advisors Inc.31,009$1.69M1.1%+1.1%0.001%
10/21/2021Cardinal Capital Management124,459$6.77M1.5%-0.2%0.003%
10/21/2021Valley Brook Capital Group Inc.7,242$0.39M0.4%-13.2%0.000%
10/21/2021Jackson Square Capital LLC20,747$1.13M0.4%+4.8%0.000%
10/21/2021Boenning & Scattergood Inc.97,558$5.31M0.9%+4.1%0.002%
10/21/2021Farmers & Merchants Investments Inc.309,503$16.85M0.7%+19.6%0.007%
10/21/2021Concorde Asset Management LLC5,059$0.28M0.2%+16.4%0.000%
10/21/2021Jag Capital Management LLC56,410$3.07M0.2%-1.4%0.001%
10/21/2021Selway Asset Management120,305$6.55M3.6%-1.7%0.003%
10/21/2021Townsend Asset Management Corp NC ADV3,809$0.21M0.1%N/A0.000%
10/21/2021Lloyd Advisory Services LLC.3,723$0.20M0.1%-22.2%0.000%
10/21/2021Schwarz Dygos Wheeler Investment Advisors LLC7,224$0.39M0.1%-21.2%0.000%
10/21/2021Tufton Capital Management95,235$5.18M0.9%+1,201.2%0.002%
10/21/2021Park Avenue Securities LLC140,707$7.66M0.2%+7.1%0.003%
10/21/2021LS Investment Advisors LLC32,756$1.78M0.2%-3.0%0.001%
10/21/2021Great Diamond Partners LLC19,382$1.05M0.3%+9.0%0.000%
10/21/2021JBJ Investment Partners LLC30,535$1.66M0.3%-1.0%0.001%
10/21/2021Hillsdale Investment Management Inc.3,257$0.18M0.0%+46.7%0.000%
10/21/2021M. Kulyk & Associates LLC133,831$7.28M2.3%+4.2%0.003%
10/21/2021Aaron Wealth Advisors LLC9,914$0.54M0.2%+11.8%0.000%
10/21/2021Sound View Wealth Advisors Group LLC32,515$1.77M0.4%+1.9%0.001%
10/21/2021Kestra Private Wealth Services LLC164,316$8.94M0.5%+3.1%0.004%
10/21/2021Diamant Asset Management Inc.5,010$0.27M0.2%N/A0.000%
10/21/2021Parkside Investments LLC133,283$7.17M1.5%+4.0%0.003%
10/21/2021Bowling Portfolio Management LLC42,594$2.32M0.5%-1.1%0.001%
10/21/2021Kessler Investment Group LLC24,270$1.32M0.9%+12,475.1%0.001%
10/21/2021Regent Investment Management LLC44,518$2.42M0.6%-27.2%0.001%
10/21/2021Highland Private Wealth Management19,086$1.04M0.1%-1.6%0.000%
10/21/2021Slow Capital Inc.50,075$2.73M0.5%-16.0%0.001%
10/21/2021Bellecapital International Ltd.177,493$9.66M2.9%+0.8%0.004%
10/21/2021Essex LLC58,620$3.19M0.9%N/A0.001%
10/21/2021Covenant Multifamily Offices LLC28,279$1.55M0.3%+2.9%0.001%
10/21/2021S.E.E.D. Planning Group LLC5,895$0.32M0.2%+10.9%0.000%
10/21/2021Douglas Lane & Associates LLC318,862$17.36M0.2%-10.5%0.008%
10/21/2021Miller Howard Investments Inc. NY910,535$49.56M2.0%+5.2%0.022%
10/21/2021Cornell Pochily Investment Advisors Inc.29,889$1.63M0.7%-3.2%0.001%
10/21/2021Everence Capital Management Inc.128,330$6.99M0.6%+22.0%0.003%
10/21/2021Crossmark Global Holdings Inc.652,204$35.50M0.8%+1.3%0.015%
10/21/2021Boyd Watterson Asset Management LLC OH36,250$1.97M0.7%+9.3%0.001%
10/21/2021Hudson Capital Management LLC45,653$2.49M1.0%-3.8%0.001%
10/21/2021Xcel Wealth Management LLC10,587$0.58M0.2%+42.4%0.000%
10/21/2021Chemung Canal Trust Co.146,149$7.96M1.5%+34.4%0.003%
10/21/2021Arrow Financial Corp82,171$4.47M0.6%-1.2%0.002%
10/21/2021Joel Isaacson & Co. LLC15,476$0.84M0.1%-13.3%0.000%
10/21/2021Oak Asset Management LLC43,915$2.42M1.0%-1.5%0.001%
10/21/2021Avantax Advisory Services Inc.162,841$8.86M0.1%+11.2%0.004%
10/21/2021Investors Financial Group LLC10,532$0.57M0.3%+2.1%0.000%
10/21/2021Sciencast Management LP25,093$1.36M0.4%-66.0%0.001%
10/21/2021Virginia Retirement Systems ET AL268,300$14.60M0.1%-0.9%0.006%
10/20/2021Garrison Asset Management LLC9,363$0.51M0.3%+13.3%0.000%
10/20/2021Galibier Capital Management Ltd.20,216$1.10M0.2%-33.8%0.000%
10/20/2021Stewart & Patten Co. LLC342,720$18.65M3.0%-2.5%0.008%
10/20/2021ProVise Management Group LLC32,086$1.75M0.2%-68.9%0.001%
10/20/2021Bourne Lent Asset Management Inc.185,288$10.09M2.9%-0.1%0.004%
10/20/2021Brown Miller Wealth Management LLC59,287$3.23M2.0%+1.8%0.001%
10/20/2021Onyx Bridge Wealth Group LLC4,713$0.26M0.1%N/A0.000%
10/20/2021Sentinel Pension Advisors Inc.7,028$0.38M0.1%+62.4%0.000%
(Data available from 1/1/2016 forward)













Cisco Systems (NASDAQ:CSCO) Institutional Ownership Frequently Asked Questions

Who are the institutional owners of Cisco Systems?

During the previous two years, 3,007 institutional investors and hedge funds held shares of Cisco Systems. The most heavily invested institutionals were Border to Coast Pensions Partnership Ltd ($18.74B), BlackRock Inc. ($18.06B), Vanguard Group Inc. ($17.74B), State Street Corp ($9.54B), Bank of New York Mellon Corp ($3.89B), Wellington Management Group LLP ($3.72B), and Geode Capital Management LLC ($3.70B).Learn more on CSCO's institutional investors

What percentage of Cisco Systems stock is owned by institutional investors?

71.92% of Cisco Systems stock is owned by institutional investors. Learn more on CSCO's institutional investor holdings

Which institutional investors have been buying Cisco Systems stock?

Of the 2,648 institutional investors that purchased Cisco Systems stock in the last 24 months, the following investors and hedge funds have bought the highest volume of shares: Norges Bank ($93.19M), BlackRock Inc. ($29.09M), Wellington Management Group LLP ($26.18M), Nordea Investment Management AB ($24.47M), First Trust Advisors LP ($21.21M), Amundi ($18.93M), and Franklin Resources Inc. ($18.23M).

How much institutional buying is happening at Cisco Systems?

Institutional investors have bought a total of 710,413,432 shares in the last 24 months. This purchase volume represents approximately $51.42B in transactions.

Which Cisco Systems institutionals have been selling company stock?

Of the 2,176 institutional investors that sold Cisco Systems stock in the last 24 months, the following investors and hedge funds have sold the highest volume of shares: Vanguard Group Inc. ($23.15M), Boston Partners ($16.31M), Nuveen Asset Management LLC ($14.27M), Massachusetts Financial Services Co. MA ($12.17M), Price T Rowe Associates Inc. MD ($11.34M), Fisher Asset Management LLC ($9.93M), and Morgan Stanley ($9.64M).

How much institutional selling is happening at Cisco Systems?

Institutional investors have sold a total of 497,782,117 shares in the last 24 months. This volume of shares sold represents approximately $59.40B in transactions.

This page was last updated on 10/25/2021 by MarketBeat.com Staff

Resources

Premium Research Tools

MarketBeat All Access subscribers can access stock screeners, the Idea Engine, data export tools, research reports, and other premium tools.

Discover All Access

Market Data and Calendars

Looking for new stock ideas? Want to see which stocks are moving? View our full suite of financial calendars and market data tables, all for free.

View Market Data

Investing Education and Resources

Receive a free world-class investing education from MarketBeat. Learn about financial terms, types of investments, trading strategies and more.

Financial Terms
Details Here
MarketBeat - Stock Market News and Research Tools logo

MarketBeat empowers individual investors to make better trading decisions by providing real-time financial data and objective market analysis. Whether you’re looking for analyst ratings, corporate buybacks, dividends, earnings, economic reports, financials, insider trades, IPOs, SEC filings or stock splits, MarketBeat has the objective information you need to analyze any stock. Learn more about MarketBeat.

MarketBeat is accredited by the Better Business Bureau

© American Consumer News, LLC dba MarketBeat® 2010-2021. All rights reserved.
326 E 8th St #105, Sioux Falls, SD 57103 | U.S. Based Support Team at [email protected] | (844) 978-6257
MarketBeat does not provide personalized financial advice and does not issue recommendations or offers to buy stock or sell any security.

Our Accessibility Statement | Terms of Service | Do Not Sell My Information

© 2021 Market data provided is at least 10-minutes delayed and hosted by Barchart Solutions. Information is provided 'as-is' and solely for informational purposes, not for trading purposes or advice, and is delayed. To see all exchange delays and terms of use please see disclaimer. Fundamental company data provided by Zacks Investment Research.